Time;durP1;ratioP1;P1;durP2;ratioP2;P2;SDS_P1;SDS_P2;PMS_P1;PMS_P2;Temp;Humidity;BMP_temperature;BMP_pressure;BME280_temperature;BME280_humidity;BME280_pressure;Samples;Min_cycle;Max_cycle;Signal;HPM_P1;HPM_P2
2023/12/16 00:00:43;;;;;;;24.27;11.15;;;5.90;99.90;;;;;;5090293;28;20373;-85
2023/12/16 00:03:10;;;;;;;32.13;12.90;;;6.40;99.90;;;;;;5089452;28;20525;-89
2023/12/16 00:05:36;;;;;;;30.83;13.30;;;6.50;99.90;;;;;;5088318;28;20024;-85
2023/12/16 00:08:01;;;;;;;24.73;12.35;;;6.00;99.90;;;;;;5090520;28;20396;-84
2023/12/16 00:10:27;;;;;;;28.23;13.52;;;8.10;99.90;;;;;;5090842;28;20484;-85
2023/12/16 00:12:53;;;;;;;60.97;25.83;;;6.30;99.90;;;;;;5092075;28;20096;-85
2023/12/16 00:15:18;;;;;;;41.88;18.25;;;5.80;99.90;;;;;;5091926;28;20016;-84
2023/12/16 00:17:44;;;;;;;35.63;15.38;;;5.60;99.90;;;;;;5090039;28;20894;-85
2023/12/16 00:20:10;;;;;;;49.28;19.45;;;6.10;99.90;;;;;;5089317;28;20422;-85
2023/12/16 00:22:38;;;;;;;40.10;17.52;;;6.00;99.90;;;;;;5088775;28;20032;-86
2023/12/16 00:25:06;;;;;;;42.85;19.40;;;5.20;99.90;;;;;;5089022;28;20413;-85
2023/12/16 00:27:32;;;;;;;36.33;16.15;;;6.00;99.90;;;;;;5089162;28;20029;-85
2023/12/16 00:29:57;;;;;;;30.55;14.50;;;6.00;99.90;;;;;;5089084;28;20035;-86
2023/12/16 00:32:23;;;;;;;28.00;10.93;;;5.50;99.90;;;;;;5088111;28;20441;-88
2023/12/16 00:34:48;;;;;;;25.27;11.93;;;5.90;99.90;;;;;;5089136;28;20486;-85
2023/12/16 00:37:14;;;;;;;21.75;10.13;;;5.30;99.90;;;;;;5089899;28;20032;-85
2023/12/16 00:39:39;;;;;;;19.80;9.23;;;5.40;99.90;;;;;;5089005;28;20028;-85
2023/12/16 00:42:05;;;;;;;21.23;9.57;;;5.50;99.90;;;;;;5090367;28;20024;-85
2023/12/16 00:44:33;;;;;;;23.08;9.32;;;5.90;99.90;;;;;;5109631;28;20055;-87
2023/12/16 00:46:59;;;;;;;18.20;8.27;;;5.40;99.90;;;;;;5112190;28;20122;-85
2023/12/16 00:49:25;;;;;;;15.10;8.05;;;5.50;99.90;;;;;;5113421;28;20028;-84
2023/12/16 00:51:50;;;;;;;18.33;9.27;;;5.40;99.90;;;;;;5113642;28;20024;-85
2023/12/16 00:54:17;;;;;;;18.70;8.88;;;5.40;99.90;;;;;;5114316;28;20020;-85
2023/12/16 00:56:42;;;;;;;15.10;7.85;;;5.80;99.90;;;;;;5114309;28;20056;-85
2023/12/16 00:59:08;;;;;;;16.35;9.20;;;5.40;99.90;;;;;;5098293;28;20103;-86
2023/12/16 01:01:33;;;;;;;20.70;9.02;;;5.30;99.90;;;;;;5090969;28;20070;-85
2023/12/16 01:03:59;;;;;;;18.70;8.48;;;5.30;99.90;;;;;;5092832;28;20028;-85
2023/12/16 01:06:24;;;;;;;22.08;9.63;;;7.30;99.90;;;;;;5092795;28;20028;-85
2023/12/16 01:08:50;;;;;;;21.90;10.32;;;5.50;99.90;;;;;;5092829;28;20357;-84
2023/12/16 01:11:16;;;;;;;21.08;9.43;;;5.20;99.90;;;;;;5094163;28;20035;-85
2023/12/16 01:13:41;;;;;;;25.73;10.07;;;5.90;99.90;;;;;;5092977;28;20020;-85
2023/12/16 01:16:07;;;;;;;22.75;11.63;;;7.20;99.90;;;;;;5092661;28;20446;-85
2023/12/16 01:18:33;;;;;;;29.45;14.00;;;5.90;99.90;;;;;;5092676;28;20020;-85
2023/12/16 01:20:58;;;;;;;25.58;14.00;;;7.90;99.90;;;;;;5091249;28;20108;-85
2023/12/16 01:23:24;;;;;;;29.90;14.65;;;5.20;99.90;;;;;;5092502;28;20012;-84
2023/12/16 01:25:49;;;;;;;30.60;16.10;;;5.40;99.90;;;;;;5091865;28;20063;-85
2023/12/16 01:28:15;;;;;;;24.58;14.13;;;5.10;99.90;;;;;;5093152;28;20089;-84
2023/12/16 01:30:41;;;;;;;24.55;13.60;;;5.30;99.90;;;;;;5092474;28;20021;-84
2023/12/16 01:33:06;;;;;;;21.10;12.32;;;5.60;99.90;;;;;;5092428;28;20032;-84
2023/12/16 01:35:32;;;;;;;19.67;10.63;;;5.00;99.90;;;;;;5092250;28;20495;-85
2023/12/16 01:37:58;;;;;;;20.40;10.05;;;5.00;99.90;;;;;;5092216;28;20167;-85
2023/12/16 01:40:23;;;;;;;20.77;9.88;;;5.00;99.90;;;;;;5092202;28;20028;-85
2023/12/16 01:42:49;;;;;;;20.77;10.25;;;5.00;99.90;;;;;;5092712;28;20020;-84
2023/12/16 01:45:18;;;;;;;18.83;10.98;;;6.40;99.90;;;;;;5092917;28;20107;-89
2023/12/16 01:47:45;;;;;;;21.40;10.55;;;5.10;99.90;;;;;;5091227;28;20456;-86
2023/12/16 01:50:12;;;;;;;21.02;10.57;;;5.30;99.90;;;;;;5091947;28;20027;-86
2023/12/16 01:52:40;;;;;;;19.27;10.55;;;5.00;99.90;;;;;;5091941;28;20076;-84
2023/12/16 01:55:06;;;;;;;26.55;11.98;;;5.30;99.90;;;;;;5091240;28;20491;-84
2023/12/16 01:57:32;;;;;;;20.42;12.13;;;5.40;99.90;;;;;;5091843;28;20020;-85
2023/12/16 01:59:57;;;;;;;20.95;11.93;;;4.80;99.90;;;;;;5090666;28;20024;-84
2023/12/16 02:02:24;;;;;;;21.95;11.82;;;4.90;99.90;;;;;;5092218;28;20490;-84
2023/12/16 02:04:50;;;;;;;21.77;12.23;;;4.90;99.90;;;;;;5092431;28;20020;-85
2023/12/16 02:07:16;;;;;;;22.98;12.32;;;5.40;99.90;;;;;;5092488;28;20032;-87
2023/12/16 02:09:42;;;;;;;21.80;11.40;;;5.20;99.90;;;;;;5091674;28;20060;-84
2023/12/16 02:12:07;;;;;;;17.08;11.35;;;5.10;99.90;;;;;;5090329;28;20028;-85
2023/12/16 02:14:33;;;;;;;19.65;10.80;;;5.00;99.90;;;;;;5091601;28;20020;-84
2023/12/16 02:16:58;;;;;;;19.67;11.90;;;4.90;99.90;;;;;;5091245;28;20024;-86
2023/12/16 02:19:26;;;;;;;21.13;10.43;;;5.50;99.90;;;;;;5091405;28;20063;-84
2023/12/16 02:21:52;;;;;;;16.73;9.97;;;5.00;99.90;;;;;;5091821;28;20103;-85
2023/12/16 02:24:19;;;;;;;20.35;10.88;;;4.80;99.90;;;;;;5092108;28;20020;-84
2023/12/16 02:26:45;;;;;;;23.10;11.30;;;4.80;99.90;;;;;;5091199;28;20096;-86
2023/12/16 02:29:10;;;;;;;19.38;11.02;;;4.70;99.90;;;;;;5091829;28;20044;-85
2023/12/16 02:31:36;;;;;;;15.05;9.60;;;4.90;99.90;;;;;;5108945;28;20088;-88
2023/12/16 02:34:01;;;;;;;17.83;10.30;;;6.90;99.90;;;;;;5111538;28;20038;-84
2023/12/16 02:36:27;;;;;;;22.77;11.23;;;4.70;99.90;;;;;;5111484;28;20034;-85
2023/12/16 02:38:53;;;;;;;16.23;10.23;;;4.90;99.90;;;;;;5111454;28;20026;-84
2023/12/16 02:41:21;;;;;;;22.02;10.95;;;5.20;99.90;;;;;;5110871;28;20032;-85
2023/12/16 02:43:46;;;;;;;20.60;10.60;;;5.00;99.90;;;;;;5111401;28;20095;-85
2023/12/16 02:46:12;;;;;;;22.92;10.43;;;6.60;99.90;;;;;;5105557;27;21004;-85
2023/12/16 02:48:38;;;;;;;16.88;10.30;;;5.00;99.90;;;;;;5090883;28;20028;-84
2023/12/16 02:51:04;;;;;;;21.65;10.48;;;5.00;99.90;;;;;;5090991;28;20476;-85
2023/12/16 02:53:30;;;;;;;18.60;10.50;;;5.50;99.90;;;;;;5089432;28;20395;-87
2023/12/16 02:55:55;;;;;;;20.35;10.63;;;4.80;99.90;;;;;;5089360;28;20032;-85
2023/12/16 02:58:21;;;;;;;18.42;10.90;;;4.80;99.90;;;;;;5091497;28;20535;-84
2023/12/16 03:00:47;;;;;;;20.63;11.68;;;4.50;99.90;;;;;;5090631;28;20034;-84
2023/12/16 03:03:12;;;;;;;17.58;10.35;;;4.80;99.90;;;;;;5090689;28;20055;-84
2023/12/16 03:05:38;;;;;;;17.20;10.30;;;4.80;99.90;;;;;;5096964;28;20067;-84
2023/12/16 03:08:03;;;;;;;18.02;10.63;;;4.70;99.90;;;;;;5110797;28;20062;-84
2023/12/16 03:10:29;;;;;;;24.40;10.57;;;5.30;99.90;;;;;;5112244;28;20053;-84
2023/12/16 03:12:55;;;;;;;19.08;10.20;;;5.60;99.90;;;;;;5112431;28;20370;-84
2023/12/16 03:15:21;;;;;;;23.05;10.65;;;5.30;99.90;;;;;;5113231;28;20024;-84
2023/12/16 03:17:47;;;;;;;16.70;9.95;;;5.30;99.90;;;;;;5110922;28;20019;-84
2023/12/16 03:20:12;;;;;;;21.23;10.07;;;5.70;99.90;;;;;;5108476;28;20039;-84
2023/12/16 03:22:38;;;;;;;17.13;10.32;;;5.20;99.90;;;;;;5090376;28;20095;-85
2023/12/16 03:25:04;;;;;;;18.50;10.05;;;4.50;99.90;;;;;;5090229;28;20032;-84
2023/12/16 03:27:30;;;;;;;15.13;9.10;;;5.10;99.90;;;;;;5089433;28;20028;-87
2023/12/16 03:29:56;;;;;;;16.25;9.55;;;4.40;99.90;;;;;;5090499;28;20024;-84
2023/12/16 03:32:21;;;;;;;16.27;9.57;;;4.80;99.90;;;;;;5089722;28;20020;-85
2023/12/16 03:34:47;;;;;;;15.93;9.52;;;4.70;99.90;;;;;;5090562;28;20038;-84
2023/12/16 03:37:14;;;;;;;17.08;9.50;;;4.50;99.90;;;;;;5089953;28;20079;-87
2023/12/16 03:39:40;;;;;;;16.50;9.40;;;4.50;99.90;;;;;;5089858;28;20028;-85
2023/12/16 03:42:06;;;;;;;14.95;8.73;;;4.60;99.90;;;;;;5089639;28;20093;-84
2023/12/16 03:44:32;;;;;;;16.70;9.70;;;6.60;99.90;;;;;;5090980;28;20055;-85
2023/12/16 03:46:58;;;;;;;18.20;9.98;;;4.70;99.90;;;;;;5108683;28;20518;-84
2023/12/16 03:49:24;;;;;;;15.05;9.27;;;4.90;99.90;;;;;;5110910;28;20024;-84
2023/12/16 03:51:49;;;;;;;14.52;8.95;;;4.70;99.90;;;;;;5110500;28;20028;-85
2023/12/16 03:54:15;;;;;;;19.65;9.05;;;4.50;99.90;;;;;;5107780;28;20035;-86
2023/12/16 03:56:40;;;;;;;18.42;9.73;;;6.50;99.90;;;;;;5108726;28;20553;-86
2023/12/16 03:59:06;;;;;;;17.15;9.30;;;4.80;99.90;;;;;;5109925;28;20027;-84
2023/12/16 04:01:31;;;;;;;21.42;9.73;;;4.80;99.90;;;;;;5108534;28;20077;-85
2023/12/16 04:03:57;;;;;;;17.15;9.68;;;4.50;99.90;;;;;;5096830;28;20111;-85
2023/12/16 04:06:23;;;;;;;20.27;9.32;;;4.40;99.90;;;;;;5090286;28;20032;-85
2023/12/16 04:08:49;;;;;;;18.88;9.35;;;4.50;99.90;;;;;;5089405;28;20032;-85
2023/12/16 04:11:14;;;;;;;19.40;9.70;;;5.00;99.90;;;;;;5089413;28;20095;-85
2023/12/16 04:13:40;;;;;;;19.58;9.65;;;4.70;99.90;;;;;;5105061;28;20373;-84
2023/12/16 04:16:06;;;;;;;19.23;10.35;;;4.60;99.90;;;;;;5089194;28;20023;-85
2023/12/16 04:18:32;;;;;;;18.58;10.07;;;5.20;99.90;;;;;;5089736;28;20085;-85
2023/12/16 04:20:58;;;;;;;16.77;9.80;;;4.60;99.90;;;;;;5089759;28;20495;-85
2023/12/16 04:23:23;;;;;;;21.90;10.57;;;5.40;99.90;;;;;;5108086;28;20023;-84
2023/12/16 04:25:49;;;;;;;18.55;9.88;;;4.80;99.90;;;;;;5090691;28;20024;-84
2023/12/16 04:28:16;;;;;;;15.82;9.70;;;4.60;99.90;;;;;;5092543;28;20043;-86
2023/12/16 04:30:41;;;;;;;18.10;9.60;;;5.30;99.90;;;;;;5098540;28;20081;-85
2023/12/16 04:33:07;;;;;;;21.63;10.55;;;4.70;99.90;;;;;;5097207;28;20107;-85
2023/12/16 04:35:32;;;;;;;21.63;10.07;;;4.60;99.90;;;;;;5082495;28;20100;-87
2023/12/16 04:37:58;;;;;;;18.00;9.13;;;5.80;99.90;;;;;;5069893;28;20028;-84
2023/12/16 04:40:24;;;;;;;15.63;9.80;;;4.60;99.90;;;;;;5067967;28;20016;-84
2023/12/16 04:42:49;;;;;;;19.65;9.88;;;4.60;99.90;;;;;;5068932;28;20028;-84
2023/12/16 04:45:15;;;;;;;15.88;9.68;;;4.90;99.90;;;;;;5080396;28;20024;-89
2023/12/16 04:47:41;;;;;;;21.92;10.48;;;4.60;99.90;;;;;;5089139;28;20058;-86
2023/12/16 04:50:06;;;;;;;16.45;9.35;;;4.80;99.90;;;;;;5089170;28;20111;-85
2023/12/16 04:52:32;;;;;;;20.55;9.65;;;5.10;99.90;;;;;;5082108;28;20492;-85
2023/12/16 04:54:58;;;;;;;18.40;9.95;;;4.50;99.90;;;;;;5069650;28;20393;-85
2023/12/16 04:57:23;;;;;;;18.55;8.98;;;7.10;99.90;;;;;;5068751;28;20032;-85
2023/12/16 04:59:49;;;;;;;16.38;8.90;;;5.00;99.90;;;;;;5067458;28;20021;-86
2023/12/16 05:02:14;;;;;;;16.67;8.93;;;4.50;99.90;;;;;;5068727;28;20504;-84
2023/12/16 05:04:40;;;;;;;16.77;9.15;;;4.30;99.90;;;;;;5068589;28;20016;-86
2023/12/16 05:07:05;;;;;;;22.45;9.30;;;4.60;99.90;;;;;;5074713;28;20062;-85
2023/12/16 05:09:31;;;;;;;17.85;8.90;;;4.40;99.90;;;;;;5080678;28;20484;-85
2023/12/16 05:11:57;;;;;;;19.05;9.90;;;4.60;99.90;;;;;;5100591;28;20055;-85
2023/12/16 05:14:22;;;;;;;14.95;8.98;;;4.40;99.90;;;;;;5088595;28;20028;-85
2023/12/16 05:16:48;;;;;;;18.38;9.20;;;4.70;99.90;;;;;;5088514;28;20021;-84
2023/12/16 05:19:14;;;;;;;14.88;9.15;;;4.30;99.90;;;;;;5089770;28;20085;-85
2023/12/16 05:21:39;;;;;;;13.15;9.13;;;4.90;99.90;;;;;;5096112;28;20024;-84
2023/12/16 05:24:05;;;;;;;16.38;8.68;;;5.20;99.90;;;;;;5088757;28;20028;-86
2023/12/16 05:26:31;;;;;;;19.40;9.15;;;4.40;99.90;;;;;;5088594;28;20043;-85
2023/12/16 05:28:57;;;;;;;19.00;9.27;;;5.00;99.90;;;;;;5090728;28;20020;-89
2023/12/16 05:31:23;;;;;;;17.75;9.07;;;3.90;99.90;;;;;;5092650;28;20028;-85
2023/12/16 05:33:49;;;;;;;12.35;8.45;;;3.90;99.90;;;;;;5092811;28;20031;-92
2023/12/16 05:36:14;;;;;;;23.02;9.18;;;3.90;99.90;;;;;;5092848;28;20439;-93
2023/12/16 05:38:40;;;;;;;18.35;9.82;;;3.90;99.90;;;;;;5092841;28;20028;-92
2023/12/16 05:41:06;;;;;;;16.27;9.13;;;3.90;99.90;;;;;;5091841;28;20144;-85
2023/12/16 05:43:32;;;;;;;17.00;8.90;;;3.90;99.90;;;;;;5092266;28;20502;-87
2023/12/16 05:45:59;;;;;;;17.33;8.82;;;4.30;99.90;;;;;;5091809;28;20563;-92
2023/12/16 05:48:25;;;;;;;14.63;7.90;;;4.10;99.90;;;;;;5091206;28;20039;-85
2023/12/16 05:50:50;;;;;;;12.85;7.93;;;3.80;99.90;;;;;;5091836;28;20024;-86
2023/12/16 05:53:16;;;;;;;11.77;8.43;;;4.00;99.90;;;;;;5102534;28;20390;-86
2023/12/16 05:55:45;;;;;;;15.43;8.88;;;4.10;99.90;;;;;;5095787;28;20089;-85
2023/12/16 05:58:11;;;;;;;15.50;9.32;;;3.80;99.90;;;;;;5090552;28;20027;-87
2023/12/16 06:00:36;;;;;;;17.35;9.13;;;4.20;99.90;;;;;;5091843;28;20028;-85
2023/12/16 06:03:02;;;;;;;17.58;8.73;;;3.90;99.90;;;;;;5092551;28;20028;-84
2023/12/16 06:05:27;;;;;;;15.10;8.10;;;4.60;99.90;;;;;;5091741;28;20073;-86
2023/12/16 06:07:53;;;;;;;13.68;8.60;;;4.50;99.90;;;;;;5107451;28;20047;-85
2023/12/16 06:10:19;;;;;;;15.63;8.70;;;5.50;99.90;;;;;;5091938;28;20369;-87
2023/12/16 06:12:44;;;;;;;17.58;8.55;;;4.20;99.90;;;;;;5094262;28;20070;-85
2023/12/16 06:15:11;;;;;;;13.27;7.85;;;4.20;99.90;;;;;;5094235;28;20051;-85
2023/12/16 06:17:37;;;;;;;14.23;8.00;;;4.60;99.90;;;;;;5087833;28;20021;-85
2023/12/16 06:20:04;;;;;;;16.88;8.68;;;4.30;99.90;;;;;;5086270;28;20046;-85
2023/12/16 06:22:30;;;;;;;15.55;7.53;;;4.60;99.90;;;;;;5092531;28;20024;-85
2023/12/16 06:24:58;;;;;;;16.98;8.27;;;4.30;99.90;;;;;;5091134;28;20032;-85
2023/12/16 06:27:23;;;;;;;14.50;7.72;;;4.60;99.90;;;;;;5089770;28;20036;-85
2023/12/16 06:29:49;;;;;;;17.40;8.32;;;4.40;99.90;;;;;;5091040;28;20021;-85
2023/12/16 06:32:14;;;;;;;21.38;8.85;;;4.50;99.90;;;;;;5090853;28;20035;-85
2023/12/16 06:34:40;;;;;;;16.20;8.52;;;4.30;99.90;;;;;;5082980;28;20024;-85
2023/12/16 06:37:06;;;;;;;12.27;7.20;;;4.30;99.90;;;;;;5070751;28;20112;-85
2023/12/16 06:39:31;;;;;;;14.93;7.63;;;4.20;99.90;;;;;;5071479;28;20066;-85
2023/12/16 06:41:57;;;;;;;16.45;7.90;;;5.80;99.90;;;;;;5070595;28;20058;-85
2023/12/16 06:44:22;;;;;;;15.30;7.82;;;4.20;99.90;;;;;;5070743;28;20027;-85
2023/12/16 06:46:48;;;;;;;13.23;8.15;;;4.40;99.90;;;;;;5085613;28;20086;-86
2023/12/16 06:49:13;;;;;;;15.60;7.88;;;4.20;99.90;;;;;;5090730;28;20400;-89
2023/12/16 06:51:39;;;;;;;21.70;7.45;;;4.40;99.90;;;;;;5105739;28;20035;-86
2023/12/16 06:54:05;;;;;;;17.23;7.18;;;4.40;99.90;;;;;;5112006;28;20062;-86
2023/12/16 06:56:30;;;;;;;13.73;6.85;;;4.30;99.90;;;;;;5109922;28;20031;-86
2023/12/16 06:58:56;;;;;;;14.88;7.00;;;;;;;;;;5110981;28;20388;-85
2023/12/16 07:01:23;;;;;;;15.32;7.05;;;4.60;99.90;;;;;;5111007;28;20028;-86
2023/12/16 07:03:49;;;;;;;16.55;7.38;;;4.20;99.90;;;;;;5098187;28;20016;-86
2023/12/16 07:06:17;;;;;;;13.88;6.93;;;5.30;99.90;;;;;;5090156;28;20046;-86
2023/12/16 07:08:44;;;;;;;;;;;6.40;99.90;;;;;;5090652;28;20030;-87
2023/12/16 07:11:12;;;;;;;14.77;6.75;;;4.20;99.90;;;;;;5090386;28;20352;-86
2023/12/16 07:13:38;;;;;;;10.68;6.43;;;4.20;99.90;;;;;;5089157;28;20059;-87
2023/12/16 07:16:04;;;;;;;14.48;6.88;;;4.40;99.90;;;;;;5091109;28;20063;-85
2023/12/16 07:18:30;;;;;;;17.90;6.85;;;4.50;99.90;;;;;;5098350;28;20499;-88
2023/12/16 07:20:56;;;;;;;18.50;6.88;;;4.10;99.90;;;;;;5097749;28;20060;-89
2023/12/16 07:23:21;;;;;;;14.48;7.55;;;4.20;99.90;;;;;;5089945;28;20531;-87
2023/12/16 07:25:47;;;;;;;17.30;6.82;;;4.30;99.90;;;;;;5089821;28;20038;-91
2023/12/16 07:28:13;;;;;;;14.50;6.70;;;4.70;99.90;;;;;;5089938;28;20438;-88
2023/12/16 07:30:39;;;;;;;13.63;7.15;;;4.40;99.90;;;;;;5090135;28;20078;-86
2023/12/16 07:33:04;;;;;;;11.95;6.97;;;4.30;99.90;;;;;;5095953;28;20031;-90
2023/12/16 07:35:30;;;;;;;11.63;7.10;;;4.10;99.90;;;;;;5109231;28;20442;-89
2023/12/16 07:37:56;;;;;;;12.70;7.28;;;4.10;99.90;;;;;;5110353;28;20034;-90
2023/12/16 07:40:21;;;;;;;14.10;6.60;;;4.50;99.90;;;;;;5108985;28;20108;-85
2023/12/16 07:42:47;;;;;;;12.68;7.55;;;4.30;99.90;;;;;;5110177;28;20483;-85
2023/12/16 07:45:12;;;;;;;12.88;7.05;;;4.30;99.90;;;;;;5110273;28;20080;-85
2023/12/16 07:47:39;;;;;;;12.60;6.60;;;4.50;99.90;;;;;;5109606;28;20035;-85
2023/12/16 07:50:05;;;;;;;11.48;6.93;;;4.30;99.90;;;;;;5109051;28;20048;-86
2023/12/16 07:52:31;;;;;;;12.20;7.47;;;4.50;99.90;;;;;;5109862;28;20023;-85
2023/12/16 07:54:56;;;;;;;13.63;7.07;;;4.10;99.90;;;;;;5070604;28;20032;-86
2023/12/16 07:57:22;;;;;;;12.15;7.20;;;4.10;99.90;;;;;;5088563;28;20048;-87
2023/12/16 07:59:48;;;;;;;12.45;7.22;;;4.10;99.90;;;;;;5082343;28;20028;-86
2023/12/16 08:02:13;;;;;;;11.45;6.65;;;4.70;99.90;;;;;;5084380;28;20031;-87
2023/12/16 08:04:40;;;;;;;15.00;7.20;;;3.80;99.90;;;;;;5088527;28;20040;-86
2023/12/16 08:07:05;;;;;;;16.30;7.43;;;4.30;99.90;;;;;;5089580;28;20043;-86
2023/12/16 08:09:32;;;;;;;13.77;7.47;;;3.80;99.90;;;;;;5088521;28;20016;-84
2023/12/16 08:11:58;;;;;;;12.85;7.05;;;4.10;99.90;;;;;;5087628;28;20031;-85
2023/12/16 08:14:33;;;;;;;11.82;6.90;;;3.60;99.90;;;;;;5099019;28;20403;-87
2023/12/16 08:16:59;;;;;;;12.60;6.50;;;4.10;99.90;;;;;;5088098;28;20034;-88
2023/12/16 08:19:24;;;;;;;13.65;7.13;;;3.70;99.90;;;;;;5097478;28;20058;-86
2023/12/16 08:21:50;;;;;;;10.02;6.72;;;3.90;99.90;;;;;;5099836;28;20059;-86
2023/12/16 08:24:16;;;;;;;10.50;6.72;;;3.90;99.90;;;;;;5087201;28;20024;-85
2023/12/16 08:26:42;;;;;;;12.88;6.57;;;3.80;99.90;;;;;;5075073;28;20047;-85
2023/12/16 08:29:07;;;;;;;10.00;6.53;;;4.10;99.90;;;;;;5086852;28;20062;-86
2023/12/16 08:31:33;;;;;;;9.02;6.45;;;3.80;99.90;;;;;;5083399;28;20056;-85
2023/12/16 08:33:59;;;;;;;11.98;6.70;;;3.70;99.90;;;;;;5071180;28;20028;-86
2023/12/16 08:36:25;;;;;;;10.10;6.97;;;4.30;99.90;;;;;;5068675;28;20032;-87
2023/12/16 08:38:50;;;;;;;17.25;6.75;;;4.10;99.90;;;;;;5078765;28;20028;-87
2023/12/16 08:41:16;;;;;;;12.88;6.57;;;4.10;99.90;;;;;;5080602;28;20035;-87
2023/12/16 08:43:42;;;;;;;13.32;7.03;;;3.90;99.90;;;;;;5078508;28;20020;-88
2023/12/16 08:46:08;;;;;;;11.57;6.88;;;4.20;99.90;;;;;;5088305;28;20021;-86
2023/12/16 08:48:38;;;;;;;15.18;7.22;;;4.60;99.90;;;;;;5088472;28;20040;-86
2023/12/16 08:51:04;;;;;;;12.45;7.07;;;4.60;99.90;;;;;;5068471;28;20400;-86
2023/12/16 08:53:30;;;;;;;9.98;6.18;;;4.60;99.90;;;;;;5069149;28;20035;-86
2023/12/16 08:55:55;;;;;;;17.77;8.20;;;4.50;99.90;;;;;;5102478;28;20039;-88
2023/12/16 08:58:21;;;;;;;16.75;8.88;;;5.50;99.90;;;;;;5088611;28;20107;-87
2023/12/16 09:00:48;;;;;;;16.95;8.80;;;4.50;99.90;;;;;;5088102;28;20063;-87
2023/12/16 09:03:14;;;;;;;17.48;9.15;;;4.70;99.90;;;;;;5086222;28;20265;-85
2023/12/16 09:05:41;;;;;;;18.77;8.85;;;4.60;99.90;;;;;;5075745;28;20028;-87
2023/12/16 09:08:06;;;;;;;16.17;8.40;;;4.90;99.90;;;;;;5082157;28;20028;-86
2023/12/16 09:10:32;;;;;;;18.50;8.85;;;4.90;99.90;;;;;;5087592;28;20048;-87
2023/12/16 09:12:58;;;;;;;16.70;9.60;;;4.90;99.90;;;;;;5071651;28;20534;-88
2023/12/16 09:15:24;;;;;;;14.27;8.38;;;5.30;99.90;;;;;;5086541;28;20040;-89
2023/12/16 09:17:50;;;;;;;15.98;8.45;;;4.80;99.90;;;;;;5088539;28;20076;-87
2023/12/16 09:20:16;;;;;;;15.90;8.68;;;6.80;99.90;;;;;;5096735;28;20039;-84
2023/12/16 09:22:41;;;;;;;12.63;7.85;;;5.40;99.90;;;;;;5091123;28;20016;-87
2023/12/16 09:25:08;;;;;;;14.13;8.23;;;5.20;99.90;;;;;;5085169;28;20032;-89
2023/12/16 09:27:35;;;;;;;13.98;8.85;;;5.20;99.90;;;;;;5091134;28;20065;-89
2023/12/16 09:30:00;;;;;;;16.95;8.98;;;5.40;99.90;;;;;;5089418;28;20032;-90
2023/12/16 09:32:26;;;;;;;16.02;9.82;;;5.40;99.90;;;;;;5085977;28;20025;-90
2023/12/16 09:34:51;;;;;;;15.10;9.52;;;6.90;99.90;;;;;;5077526;28;20035;-86
2023/12/16 09:37:17;;;;;;;20.80;10.60;;;5.40;99.90;;;;;;5080837;28;20421;-86
2023/12/16 09:39:42;;;;;;;16.33;9.63;;;5.50;99.90;;;;;;5086752;28;20028;-89
2023/12/16 09:42:12;;;;;;;14.25;9.02;;;5.40;99.90;;;;;;5074451;28;20056;-86
2023/12/16 09:44:37;;;;;;;17.85;9.35;;;5.50;99.90;;;;;;5091172;28;20032;-88
2023/12/16 09:47:04;;;;;;;18.58;10.48;;;6.00;99.90;;;;;;5091673;28;20379;-86
2023/12/16 09:49:32;;;;;;;16.73;10.25;;;5.90;99.90;;;;;;5092276;28;20031;-86
2023/12/16 09:51:58;;;;;;;17.52;9.43;;;5.80;99.90;;;;;;5090229;28;20097;-90
2023/12/16 09:54:24;;;;;;;18.60;10.07;;;5.80;99.90;;;;;;5090714;28;20488;-87
2023/12/16 09:56:50;;;;;;;18.45;9.77;;;5.90;99.90;;;;;;5091393;28;20082;-85
2023/12/16 09:59:20;;;;;;;18.60;10.60;;;7.20;99.90;;;;;;5091170;28;20024;-84
2023/12/16 10:02:05;;;;;;;18.27;10.55;;;5.90;99.90;;;;;;5090073;28;20463;-85
2023/12/16 10:04:34;;;;;;;17.15;10.43;;;6.10;99.90;;;;;;5077320;28;20553;-84
2023/12/16 10:06:59;;;;;;;16.65;10.05;;;6.00;99.90;;;;;;5071209;28;20039;-85
2023/12/16 10:09:25;;;;;;;16.67;10.82;;;5.80;99.90;;;;;;5087287;28;20028;-86
2023/12/16 10:11:51;;;;;;;16.80;9.63;;;6.20;99.90;;;;;;5091914;28;20024;-86
2023/12/16 10:14:17;;;;;;;14.90;9.10;;;7.80;99.90;;;;;;5089173;28;20027;-87
2023/12/16 10:16:47;;;;;;;14.40;8.77;;;6.20;99.90;;;;;;5091112;28;20024;-85
2023/12/16 10:19:12;;;;;;;15.70;9.00;;;7.40;99.90;;;;;;5091719;28;20032;-85
2023/12/16 10:21:39;;;;;;;19.27;9.18;;;6.50;99.90;;;;;;5086314;28;20105;-85
2023/12/16 10:24:05;;;;;;;21.17;8.80;;;7.00;99.90;;;;;;5072379;28;20032;-84
2023/12/16 10:26:33;;;;;;;14.20;8.80;;;6.80;99.90;;;;;;5090882;28;20036;-84
2023/12/16 10:29:04;;;;;;;16.05;8.35;;;7.00;99.90;;;;;;5088517;28;20027;-84
2023/12/16 10:31:29;;;;;;;17.02;9.35;;;7.50;99.90;;;;;;5090614;28;20020;-85
2023/12/16 10:33:55;;;;;;;17.17;8.98;;;7.50;99.90;;;;;;5089973;28;20042;-84
2023/12/16 10:36:20;;;;;;;16.70;8.75;;;7.40;99.90;;;;;;5088930;28;20482;-84
2023/12/16 10:38:47;;;;;;;14.05;9.40;;;7.30;99.90;;;;;;5090786;28;20028;-84
2023/12/16 10:41:12;;;;;;;14.68;8.38;;;7.90;99.90;;;;;;5091908;28;20383;-85
2023/12/16 10:43:38;;;;;;;15.68;10.15;;;8.30;99.90;;;;;;5084936;28;20023;-85
2023/12/16 10:46:05;;;;;;;17.85;9.38;;;8.30;99.90;;;;;;5083422;28;20035;-86
2023/12/16 10:48:35;;;;;;;21.92;8.60;;;7.60;99.90;;;;;;5090943;28;20492;-87
2023/12/16 10:51:03;;;;;;;13.88;8.85;;;8.30;99.90;;;;;;5090034;28;20028;-85
2023/12/16 10:53:44;;;;;;;21.08;9.82;;;7.80;99.90;;;;;;5088472;28;20070;-83
2023/12/16 10:56:30;;;;;;;16.17;8.93;;;8.00;99.90;;;;;;5088543;28;20032;-84
2023/12/16 10:59:12;;;;;;;16.40;9.32;;;8.40;99.90;;;;;;5082082;28;20032;-85
2023/12/16 11:01:43;;;;;;;13.40;8.35;;;8.30;99.90;;;;;;5077803;28;20261;-84
2023/12/16 11:04:16;;;;;;;15.35;8.77;;;8.40;99.90;;;;;;5088731;28;20110;-85
2023/12/16 11:06:48;;;;;;;19.58;8.60;;;8.00;99.90;;;;;;5089352;28;20044;-85
2023/12/16 11:09:14;;;;;;;12.50;7.82;;;8.10;99.90;;;;;;5089687;28;20483;-86
2023/12/16 11:11:41;;;;;;;12.98;7.78;;;8.50;99.90;;;;;;5089275;28;20052;-85
2023/12/16 11:14:08;;;;;;;11.07;7.28;;;9.70;99.90;;;;;;5090000;28;20035;-85
2023/12/16 11:17:24;;;;;;;13.68;7.18;;;8.90;99.90;;;;;;5089360;28;20038;-90
2023/12/16 11:19:58;;;;;;;16.63;7.50;;;8.10;99.90;;;;;;5063340;28;20032;-84
2023/12/16 11:22:24;;;;;;;12.35;6.35;;;8.80;99.90;;;;;;5087951;28;20044;-91
2023/12/16 11:24:53;;;;;;;14.88;6.63;;;8.30;99.90;;;;;;5089568;28;20492;-85
2023/12/16 11:27:22;;;;;;;15.65;6.93;;;10.10;99.90;;;;;;5079261;28;20037;-85
2023/12/16 11:29:47;;;;;;;;;;;9.60;99.90;;;;;;5076668;28;20028;-85
2023/12/16 11:32:13;;;;;;;16.75;6.30;;;8.50;99.90;;;;;;5072175;28;19923;-86
2023/12/16 11:34:38;;;;;;;14.88;6.35;;;8.00;99.90;;;;;;5082796;28;20107;-85
2023/12/16 11:37:04;;;;;;;17.58;6.95;;;8.00;99.90;;;;;;5069426;28;20067;-85
2023/12/16 11:39:40;;;;;;;15.45;6.32;;;8.60;99.90;;;;;;5069679;28;20099;-85
2023/12/16 11:42:09;;;;;;;16.83;6.38;;;9.20;99.90;;;;;;5079477;28;20403;-85
2023/12/16 11:44:50;;;;;;;;;;;8.50;99.90;;;;;;5089454;28;20042;-85
2023/12/16 11:47:23;;;;;;;10.57;5.28;;;8.10;99.90;;;;;;5089825;28;20014;-86
2023/12/16 11:49:49;;;;;;;12.18;5.90;;;9.20;99.90;;;;;;5077671;28;20024;-85
2023/12/16 11:52:23;;;;;;;11.10;5.40;;;9.90;99.90;;;;;;5074974;28;20024;-85
2023/12/16 11:54:53;;;;;;;17.95;6.43;;;8.40;99.90;;;;;;5069810;28;20036;-84
2023/12/16 11:57:24;;;;;;;15.63;5.80;;;8.30;99.90;;;;;;5070236;28;20021;-85
2023/12/16 11:59:51;;;;;;;11.38;5.35;;;8.20;99.90;;;;;;5087833;28;20028;-85
2023/12/16 12:02:17;;;;;;;14.90;4.70;;;8.70;99.90;;;;;;5087955;28;20549;-84
2023/12/16 12:04:43;;;;;;;8.32;4.93;;;8.90;99.90;;;;;;5085100;28;20039;-85
2023/12/16 12:07:09;;;;;;;16.33;4.95;;;9.30;99.90;;;;;;5068992;28;20082;-85
2023/12/16 12:09:35;;;;;;;10.50;4.28;;;9.20;99.90;;;;;;5077875;28;20020;-85
2023/12/16 12:12:01;;;;;;;13.73;4.57;;;8.80;99.90;;;;;;5088696;28;20107;-85
2023/12/16 12:14:27;;;;;;;13.10;5.25;;;9.80;99.90;;;;;;5072136;28;20066;-85
2023/12/16 12:16:53;;;;;;;10.93;5.55;;;9.60;99.90;;;;;;5075753;28;20060;-85
2023/12/16 12:19:18;;;;;;;10.13;3.67;;;10.30;99.90;;;;;;5090826;28;20050;-86
2023/12/16 12:21:44;;;;;;;14.55;4.40;;;9.50;99.90;;;;;;5089686;28;20036;-86
2023/12/16 12:24:10;;;;;;;13.93;5.15;;;9.50;99.90;;;;;;5088885;28;20032;-85
2023/12/16 12:26:35;;;;;;;10.85;5.25;;;9.10;99.90;;;;;;5089357;28;20028;-85
2023/12/16 12:29:02;;;;;;;9.52;4.32;;;8.70;99.90;;;;;;5088309;28;20419;-85
2023/12/16 12:31:28;;;;;;;9.73;3.92;;;8.80;99.90;;;;;;5088177;28;20016;-85
2023/12/16 12:33:54;;;;;;;9.52;4.00;;;9.10;99.90;;;;;;5086190;28;20465;-85
2023/12/16 12:36:20;;;;;;;12.75;4.68;;;9.20;99.90;;;;;;5087945;28;20103;-86
2023/12/16 12:38:52;;;;;;;11.77;4.53;;;9.20;99.90;;;;;;5087793;28;20020;-85
2023/12/16 12:41:18;;;;;;;10.32;4.97;;;8.90;99.90;;;;;;5088248;28;20032;-85